createdAt,value
2024-02-29T00:00:02.304Z,76.67
2024-02-29T00:00:34.358Z,76.96
2024-02-29T00:01:06.904Z,76.64
2024-02-29T00:01:41.573Z,76.62
2024-02-29T00:02:13.992Z,76.80
2024-02-29T00:02:45.995Z,77.10
2024-02-29T00:03:17.926Z,77.21
2024-02-29T00:03:50.160Z,77.37
2024-02-29T00:04:25.945Z,76.98
2024-02-29T00:04:57.864Z,77.14
2024-02-29T00:05:29.893Z,77.55
2024-02-29T00:06:01.928Z,77.50
2024-02-29T00:06:33.981Z,77.86
2024-02-29T00:07:06.356Z,77.58
2024-02-29T00:07:39.738Z,77.49
2024-02-29T00:08:12.084Z,77.65
2024-02-29T00:08:43.995Z,77.39
2024-02-29T00:09:15.922Z,77.87
2024-02-29T00:09:47.914Z,77.45
2024-02-29T00:10:20.265Z,77.32
2024-02-29T00:10:52.251Z,77.44
2024-02-29T00:11:24.198Z,77.30
2024-02-29T00:11:56.643Z,77.72
2024-02-29T00:12:28.588Z,77.56
2024-02-29T00:13:00.922Z,77.73
2024-02-29T00:13:32.887Z,77.62
2024-02-29T00:14:04.838Z,77.65
2024-02-29T00:14:38.524Z,77.54
2024-02-29T00:15:11.814Z,77.95
2024-02-29T00:15:44.060Z,77.55
2024-02-29T00:16:16.171Z,77.57
2024-02-29T00:16:48.122Z,77.63
2024-02-29T00:17:21.298Z,77.63
2024-02-29T00:17:53.326Z,77.30
2024-02-29T00:18:25.388Z,77.67
2024-02-29T00:18:57.355Z,77.63
2024-02-29T00:19:29.447Z,77.09
2024-02-29T00:20:01.478Z,77.72
2024-02-29T00:20:36.012Z,78.24
2024-02-29T00:21:08.057Z,77.97
2024-02-29T00:21:42.125Z,78.25
2024-02-29T00:22:14.397Z,78.09
2024-02-29T00:22:47.869Z,77.87
2024-02-29T00:23:22.443Z,78.21
2024-02-29T00:23:54.362Z,77.99
2024-02-29T00:24:26.583Z,77.97
2024-02-29T00:24:58.577Z,78.15
2024-02-29T00:25:30.525Z,78.18
2024-02-29T00:26:02.438Z,77.93
2024-02-29T00:26:34.376Z,78.09
2024-02-29T00:27:06.891Z,77.79
2024-02-29T00:27:39.034Z,77.76
2024-02-29T00:28:11.124Z,78.14
2024-02-29T00:28:43.079Z,77.71
2024-02-29T00:29:15.084Z,78.38
2024-02-29T00:29:47.001Z,78.26
2024-02-29T00:30:18.972Z,78.43
2024-02-29T00:30:51.224Z,78.85
2024-02-29T00:31:23.651Z,78.59
2024-02-29T00:32:02.121Z,78.86
2024-02-29T00:32:35.335Z,78.89
2024-02-29T00:33:07.449Z,78.66
2024-02-29T00:33:41.167Z,78.56
2024-02-29T00:34:13.710Z,78.58
2024-02-29T00:34:46.128Z,78.45
2024-02-29T00:35:18.174Z,78.68
2024-02-29T00:35:55.380Z,78.77
2024-02-29T00:36:30.727Z,78.57
2024-02-29T00:37:02.894Z,78.69
2024-02-29T00:37:34.812Z,78.95
2024-02-29T00:38:06.764Z,78.79
2024-02-29T00:38:39.918Z,77.87
2024-02-29T00:39:15.231Z,78.11
2024-02-29T00:39:47.836Z,78.38
2024-02-29T00:40:21.815Z,78.50
2024-02-29T00:40:54.104Z,77.82
2024-02-29T00:41:26.113Z,78.63
2024-02-29T00:41:58.456Z,78.51
2024-02-29T00:42:30.454Z,77.97
2024-02-29T00:43:03.679Z,78.83
2024-02-29T00:43:35.662Z,78.70
2024-02-29T00:44:07.910Z,78.20
2024-02-29T00:44:39.837Z,77.90
2024-02-29T00:45:11.776Z,78.60
2024-02-29T00:45:46.439Z,78.56
2024-02-29T00:46:18.425Z,78.89
2024-02-29T00:46:50.414Z,78.65
2024-02-29T00:47:22.331Z,78.06
2024-02-29T00:47:56.421Z,78.08
2024-02-29T00:48:28.683Z,78.78
2024-02-29T00:49:00.749Z,78.37
2024-02-29T00:49:33.338Z,78.93
2024-02-29T00:50:05.868Z,77.77
2024-02-29T00:50:40.740Z,78.36
2024-02-29T00:51:12.727Z,78.06
2024-02-29T00:51:47.668Z,78.31
2024-02-29T00:52:19.680Z,78.61
2024-02-29T00:52:54.049Z,78.40
2024-02-29T00:53:26.030Z,78.22
2024-02-29T00:53:57.932Z,78.05
2024-02-29T00:54:30.009Z,78.61
2024-02-29T00:55:03.568Z,78.67
2024-02-29T00:55:35.561Z,78.24
2024-02-29T00:56:07.532Z,77.89
2024-02-29T00:56:39.537Z,78.35
2024-02-29T00:57:11.471Z,77.77
2024-02-29T00:57:45.458Z,77.89
2024-02-29T00:58:17.421Z,78.03
2024-02-29T00:58:49.443Z,78.15
2024-02-29T00:59:21.382Z,78.56
2024-02-29T00:59:53.323Z,78.51
2024-02-29T01:00:25.259Z,78.29
2024-02-29T01:00:57.596Z,78.34
2024-02-29T01:01:29.746Z,78.21
2024-02-29T01:02:02.317Z,77.98
2024-02-29T01:02:34.346Z,78.28
2024-02-29T01:03:06.383Z,78.38
2024-02-29T01:03:38.498Z,78.73
2024-02-29T01:04:10.882Z,77.81
2024-02-29T01:04:42.881Z,77.60
2024-02-29T01:05:16.009Z,77.76
2024-02-29T01:05:47.946Z,77.84
2024-02-29T01:06:19.859Z,77.85
2024-02-29T01:06:51.878Z,78.19
2024-02-29T01:07:23.810Z,78.10
2024-02-29T01:07:56.015Z,77.99
2024-02-29T01:08:27.935Z,78.00
2024-02-29T01:08:59.913Z,77.78
2024-02-29T01:09:31.992Z,78.18
2024-02-29T01:10:08.487Z,78.04
2024-02-29T01:10:40.481Z,78.03
2024-02-29T01:11:12.640Z,78.48
2024-02-29T01:11:44.670Z,78.26
2024-02-29T01:12:16.688Z,78.68
2024-02-29T01:12:48.672Z,78.52
2024-02-29T01:13:20.742Z,78.57
2024-02-29T01:13:52.656Z,78.77
2024-02-29T01:14:24.569Z,77.91
2024-02-29T01:14:56.593Z,78.05
2024-02-29T01:15:28.568Z,78.09
2024-02-29T01:16:00.552Z,78.04
2024-02-29T01:16:32.563Z,78.32
2024-02-29T01:17:04.502Z,78.53
2024-02-29T01:17:36.887Z,78.39
2024-02-29T01:18:12.038Z,78.65
2024-02-29T01:18:44.022Z,78.52
2024-02-29T01:19:16.293Z,78.40
2024-02-29T01:19:48.357Z,78.87
2024-02-29T01:20:20.537Z,78.39
2024-02-29T01:20:52.461Z,78.09
2024-02-29T01:21:24.385Z,78.39
2024-02-29T01:21:56.507Z,78.14
2024-02-29T01:22:28.559Z,78.49
2024-02-29T01:23:00.536Z,78.62
2024-02-29T01:23:32.469Z,78.65
2024-02-29T01:24:04.551Z,78.56
2024-02-29T01:24:36.991Z,78.65
2024-02-29T01:25:09.434Z,78.36
2024-02-29T01:25:41.549Z,78.74
2024-02-29T01:26:13.537Z,78.75
2024-02-29T01:26:45.540Z,78.85
2024-02-29T01:27:17.514Z,78.60
2024-02-29T01:27:49.517Z,78.49
2024-02-29T01:28:21.550Z,78.20
2024-02-29T01:28:53.541Z,78.71
2024-02-29T01:29:26.971Z,78.32
2024-02-29T01:29:58.980Z,78.24
2024-02-29T01:30:31.015Z,78.08
2024-02-29T01:31:03.525Z,77.98
2024-02-29T01:31:35.537Z,78.21
2024-02-29T01:32:15.754Z,78.13
2024-02-29T01:32:54.154Z,78.39
2024-02-29T01:33:26.257Z,78.32
2024-02-29T01:33:58.366Z,78.30
2024-02-29T01:34:30.330Z,78.91
2024-02-29T01:35:02.436Z,79.03
2024-02-29T01:35:34.359Z,78.94
2024-02-29T01:36:08.009Z,78.77
2024-02-29T01:36:42.730Z,78.80
2024-02-29T01:37:15.326Z,78.88
2024-02-29T01:37:47.540Z,78.35
2024-02-29T01:38:19.456Z,78.85
2024-02-29T01:38:51.374Z,79.27
2024-02-29T01:39:23.329Z,78.59
2024-02-29T01:39:55.326Z,78.79
2024-02-29T01:40:27.352Z,79.42
2024-02-29T01:40:59.361Z,79.12
2024-02-29T01:41:31.572Z,79.06
2024-02-29T01:42:04.193Z,78.94
2024-02-29T01:42:36.177Z,78.93
2024-02-29T01:43:08.286Z,78.89
2024-02-29T01:43:40.237Z,79.10
2024-02-29T01:44:12.184Z,78.80
2024-02-29T01:45:04.464Z,79.58
2024-02-29T01:45:36.819Z,79.06
2024-02-29T01:46:13.383Z,79.47
2024-02-29T01:46:45.929Z,79.33
2024-02-29T01:47:20.273Z,79.21
2024-02-29T01:47:52.326Z,79.00
2024-02-29T01:48:25.104Z,79.49
2024-02-29T01:48:57.729Z,79.24
2024-02-29T01:49:29.954Z,79.25
2024-02-29T01:50:05.440Z,79.01
2024-02-29T01:50:38.850Z,78.89
2024-02-29T01:51:11.347Z,79.54
2024-02-29T01:51:44.760Z,79.47
2024-02-29T01:52:17.636Z,79.81
2024-02-29T01:52:50.040Z,79.10
2024-02-29T01:53:22.022Z,78.98
2024-02-29T01:53:53.978Z,78.74
2024-02-29T01:54:25.926Z,79.22
2024-02-29T01:55:00.491Z,78.70
2024-02-29T01:55:32.686Z,79.11
2024-02-29T01:56:04.997Z,79.09
2024-02-29T01:56:37.146Z,78.89
2024-02-29T01:57:10.276Z,78.81
2024-02-29T01:57:42.798Z,79.15
2024-02-29T01:58:14.993Z,78.86
2024-02-29T01:58:47.097Z,79.05
2024-02-29T01:59:19.172Z,79.00
2024-02-29T01:59:51.321Z,78.95
2024-02-29T02:00:23.290Z,79.29
2024-02-29T02:00:55.314Z,78.67
2024-02-29T02:01:27.676Z,78.88
2024-02-29T02:01:59.740Z,79.37
2024-02-29T02:02:31.738Z,79.14
2024-02-29T02:03:03.796Z,79.01
2024-02-29T02:03:35.909Z,79.28
2024-02-29T02:04:10.687Z,79.47
2024-02-29T02:04:42.637Z,78.72
2024-02-29T02:05:14.836Z,79.04
2024-02-29T02:05:46.737Z,78.83
2024-02-29T02:06:18.678Z,79.15
2024-02-29T02:06:50.654Z,79.13
2024-02-29T02:07:22.824Z,79.31
2024-02-29T02:07:54.956Z,78.87
2024-02-29T02:08:30.701Z,79.06
2024-02-29T02:09:03.007Z,79.38
2024-02-29T02:09:36.411Z,79.66
2024-02-29T02:10:11.777Z,79.50
2024-02-29T02:10:43.837Z,79.19
2024-02-29T02:11:15.869Z,78.99
2024-02-29T02:11:47.811Z,79.14
2024-02-29T02:12:20.383Z,79.67
2024-02-29T02:12:52.398Z,79.34
2024-02-29T02:13:24.522Z,79.16
2024-02-29T02:13:57.082Z,79.13
2024-02-29T02:14:29.185Z,79.39
2024-02-29T02:15:03.758Z,79.49
2024-02-29T02:15:35.748Z,79.39
2024-02-29T02:16:09.953Z,79.28
2024-02-29T02:16:42.250Z,79.99
2024-02-29T02:17:14.476Z,79.46
2024-02-29T02:17:46.491Z,79.74
2024-02-29T02:18:18.445Z,79.44
2024-02-29T02:18:50.368Z,79.81
2024-02-29T02:19:22.320Z,80.14
2024-02-29T02:19:54.251Z,79.51
2024-02-29T02:20:26.179Z,79.49
2024-02-29T02:20:58.209Z,79.55
2024-02-29T02:21:30.183Z,79.47
2024-02-29T02:22:05.416Z,79.45
2024-02-29T02:22:37.492Z,79.27
2024-02-29T02:23:09.597Z,80.14
2024-02-29T02:23:41.536Z,79.74
2024-02-29T02:24:13.454Z,79.41
2024-02-29T02:24:45.399Z,79.71
2024-02-29T02:25:18.013Z,79.78
2024-02-29T02:25:50.128Z,79.49
2024-02-29T02:26:22.048Z,79.60
2024-02-29T02:26:53.986Z,79.65
2024-02-29T02:27:25.908Z,79.47
2024-02-29T02:27:57.909Z,79.80
2024-02-29T02:28:30.576Z,80.09
2024-02-29T02:29:03.816Z,79.23
2024-02-29T02:29:35.733Z,80.00
2024-02-29T02:30:08.402Z,79.33
2024-02-29T02:30:40.827Z,79.51
2024-02-29T02:31:13.720Z,79.80
2024-02-29T02:31:45.733Z,79.88
2024-02-29T02:32:17.806Z,79.62
2024-02-29T02:32:49.759Z,79.72
2024-02-29T02:33:21.935Z,79.52
2024-02-29T02:33:53.869Z,79.57
2024-02-29T02:34:41.095Z,79.33
2024-02-29T02:36:05.795Z,79.19
2024-02-29T02:36:37.780Z,79.44
2024-02-29T02:37:09.885Z,78.77
2024-02-29T02:37:41.913Z,79.46
2024-02-29T02:38:14.166Z,79.31
2024-02-29T02:38:46.087Z,79.51
2024-02-29T02:39:18.065Z,78.73
2024-02-29T02:39:50.016Z,79.08
2024-02-29T02:40:21.977Z,78.53
2024-02-29T02:40:53.875Z,79.12
2024-02-29T02:41:25.898Z,79.03
2024-02-29T02:41:58.033Z,79.15
2024-02-29T02:42:29.959Z,79.56
2024-02-29T02:43:02.543Z,78.95
2024-02-29T02:43:34.621Z,79.13
2024-02-29T02:44:06.535Z,79.16
2024-02-29T02:44:38.460Z,78.79
2024-02-29T02:45:10.482Z,78.42
2024-02-29T02:45:42.410Z,78.82
2024-02-29T02:46:14.773Z,79.07
2024-02-29T02:46:46.705Z,78.79
2024-02-29T02:47:18.639Z,78.82
2024-02-29T02:47:50.576Z,79.15
2024-02-29T02:48:22.588Z,78.98
2024-02-29T02:48:54.519Z,78.63
2024-02-29T02:49:26.465Z,78.52
2024-02-29T02:49:58.382Z,79.13
2024-02-29T02:50:30.387Z,78.86
2024-02-29T02:51:02.383Z,79.03
2024-02-29T02:51:34.439Z,78.95
2024-02-29T02:52:06.413Z,78.81
2024-02-29T02:52:38.329Z,79.02
2024-02-29T02:53:10.247Z,78.63
2024-02-29T02:53:42.230Z,79.25
2024-02-29T02:54:14.198Z,78.92
2024-02-29T02:54:46.144Z,79.05
2024-02-29T02:55:18.100Z,78.66
2024-02-29T02:55:50.057Z,79.62
2024-02-29T02:56:21.975Z,79.10
2024-02-29T02:56:53.885Z,79.31
2024-02-29T02:57:25.798Z,79.26
2024-02-29T02:57:57.742Z,79.30
2024-02-29T02:58:29.698Z,79.41
2024-02-29T02:59:01.739Z,79.37
2024-02-29T02:59:35.934Z,79.84
2024-02-29T03:00:11.426Z,79.96
2024-02-29T03:00:43.411Z,79.69
2024-02-29T03:01:15.467Z,79.85
2024-02-29T03:01:47.514Z,79.64
2024-02-29T03:02:19.808Z,79.74
2024-02-29T03:02:52.413Z,80.14
2024-02-29T03:03:24.457Z,79.84
2024-02-29T03:03:56.919Z,80.58
2024-02-29T03:04:28.938Z,79.95
2024-02-29T03:05:00.878Z,80.34
2024-02-29T03:05:32.851Z,80.60
2024-02-29T03:06:05.001Z,79.81
2024-02-29T03:06:36.977Z,80.34
2024-02-29T03:07:08.996Z,79.88
2024-02-29T03:07:40.974Z,80.18
2024-02-29T03:08:15.342Z,80.29
2024-02-29T03:08:47.251Z,79.92
2024-02-29T03:09:19.176Z,79.89
2024-02-29T03:09:51.189Z,80.15
2024-02-29T03:10:23.258Z,79.73
2024-02-29T03:10:55.256Z,79.99
2024-02-29T03:11:27.422Z,80.16
2024-02-29T03:11:59.375Z,79.68
2024-02-29T03:12:31.311Z,80.29
2024-02-29T03:13:03.373Z,79.77
2024-02-29T03:13:35.338Z,80.07
2024-02-29T03:14:07.403Z,79.90
2024-02-29T03:14:39.357Z,79.47
2024-02-29T03:15:11.409Z,79.50
2024-02-29T03:15:43.384Z,79.89
2024-02-29T03:16:23.017Z,79.66
2024-02-29T03:16:55.099Z,79.59
2024-02-29T03:17:27.617Z,80.14
2024-02-29T03:17:59.712Z,79.87
2024-02-29T03:18:31.699Z,79.73
2024-02-29T03:19:06.139Z,79.56
2024-02-29T03:19:38.135Z,79.92
2024-02-29T03:20:13.565Z,79.42
2024-02-29T03:20:45.515Z,79.63
2024-02-29T03:21:17.530Z,79.34
2024-02-29T03:21:49.497Z,79.54
2024-02-29T03:22:21.520Z,79.37
2024-02-29T03:22:53.451Z,79.44
2024-02-29T03:23:25.561Z,79.98
2024-02-29T03:23:57.610Z,79.79
2024-02-29T03:24:29.523Z,79.84
2024-02-29T03:25:01.550Z,80.12
2024-02-29T03:25:33.501Z,80.10
2024-02-29T03:26:06.671Z,79.72
2024-02-29T03:26:38.654Z,80.07
2024-02-29T03:27:12.223Z,79.62
2024-02-29T03:27:44.230Z,79.26
2024-02-29T03:28:16.338Z,80.16
2024-02-29T03:28:48.436Z,79.10
2024-02-29T03:29:20.371Z,79.20
2024-02-29T03:29:52.955Z,79.86
2024-02-29T03:30:25.072Z,79.56
2024-02-29T03:30:58.077Z,80.06
2024-02-29T03:31:30.072Z,79.65
2024-02-29T03:32:02.155Z,80.26
2024-02-29T03:32:34.180Z,80.29
2024-02-29T03:33:06.272Z,80.39
2024-02-29T03:33:38.313Z,79.72
2024-02-29T03:34:10.602Z,80.13
2024-02-29T03:34:42.593Z,80.62
2024-02-29T03:35:14.564Z,80.00
2024-02-29T03:35:46.639Z,80.32
2024-02-29T03:36:18.595Z,80.25
2024-02-29T03:36:50.589Z,80.23
2024-02-29T03:37:22.739Z,79.91
2024-02-29T03:37:54.773Z,79.76
2024-02-29T03:38:26.706Z,80.57
2024-02-29T03:38:59.223Z,80.43
2024-02-29T03:39:31.306Z,80.44
2024-02-29T03:40:03.377Z,80.24
2024-02-29T03:40:35.343Z,79.87
2024-02-29T03:41:09.928Z,79.94
2024-02-29T03:41:41.873Z,80.52
2024-02-29T03:42:13.764Z,79.84
2024-02-29T03:42:45.796Z,80.42
2024-02-29T03:43:17.764Z,80.25
2024-02-29T03:43:49.726Z,80.53
2024-02-29T03:44:21.654Z,80.75
2024-02-29T03:44:57.702Z,80.11
2024-02-29T03:45:29.908Z,80.14
2024-02-29T03:46:02.975Z,80.33
2024-02-29T03:46:36.975Z,79.84
2024-02-29T03:47:09.084Z,80.55
2024-02-29T03:47:41.044Z,79.96
2024-02-29T03:48:13.035Z,80.22
2024-02-29T03:48:45.003Z,80.53
2024-02-29T03:49:17.227Z,80.34
2024-02-29T03:49:49.188Z,80.17
2024-02-29T03:50:21.181Z,80.77
2024-02-29T03:50:54.328Z,80.24
2024-02-29T03:51:26.918Z,79.82
2024-02-29T03:51:58.909Z,80.73
2024-02-29T03:52:30.876Z,80.18
2024-02-29T03:53:02.897Z,80.03
2024-02-29T03:53:34.843Z,80.36
2024-02-29T03:54:06.765Z,80.21
2024-02-29T03:54:38.734Z,80.48
2024-02-29T03:55:11.115Z,80.34
2024-02-29T03:55:44.887Z,80.04
2024-02-29T03:56:16.845Z,80.15
2024-02-29T03:56:48.845Z,79.72
2024-02-29T03:57:20.782Z,80.08
2024-02-29T03:57:53.152Z,79.60
2024-02-29T03:58:25.081Z,80.12
2024-02-29T03:58:56.991Z,80.62
2024-02-29T03:59:29.746Z,80.59
2024-02-29T04:00:01.678Z,80.17
2024-02-29T04:00:33.661Z,80.31
2024-02-29T04:01:06.746Z,80.49
2024-02-29T04:01:38.902Z,80.28
2024-02-29T04:02:10.962Z,80.27
2024-02-29T04:02:42.911Z,80.37
2024-02-29T04:03:15.112Z,80.69
2024-02-29T04:03:47.043Z,80.73
2024-02-29T04:04:20.256Z,80.17
2024-02-29T04:04:52.585Z,80.71
2024-02-29T04:05:25.760Z,80.14
2024-02-29T04:05:58.270Z,80.44
2024-02-29T04:06:30.201Z,81.20
2024-02-29T04:07:02.141Z,80.69
2024-02-29T04:07:35.318Z,80.64
2024-02-29T04:08:12.459Z,81.19
2024-02-29T04:08:44.503Z,80.76
2024-02-29T04:09:16.561Z,81.26
2024-02-29T04:09:48.462Z,81.33
2024-02-29T04:10:20.448Z,81.03
2024-02-29T04:10:52.424Z,81.64
2024-02-29T04:11:24.807Z,81.01
2024-02-29T04:11:56.756Z,81.33
2024-02-29T04:12:28.929Z,81.55
2024-02-29T04:13:01.402Z,81.03
2024-02-29T04:13:33.334Z,80.94
2024-02-29T04:14:06.196Z,81.02
2024-02-29T04:14:40.061Z,80.93
2024-02-29T04:15:12.222Z,81.64
2024-02-29T04:15:45.273Z,81.54
2024-02-29T04:16:19.347Z,81.44
2024-02-29T04:16:51.385Z,81.51
2024-02-29T04:17:23.329Z,81.12
2024-02-29T04:17:55.353Z,80.82
2024-02-29T04:18:27.298Z,81.49
2024-02-29T04:18:59.265Z,81.81
2024-02-29T04:19:31.746Z,81.37
2024-02-29T04:20:03.804Z,81.56
2024-02-29T04:20:35.722Z,80.89
2024-02-29T04:21:07.635Z,80.96
2024-02-29T04:21:47.179Z,81.04
2024-02-29T04:22:19.273Z,81.45
2024-02-29T04:22:51.285Z,80.66
2024-02-29T04:23:23.234Z,81.44
2024-02-29T04:23:55.135Z,80.97
2024-02-29T04:24:27.441Z,81.49
2024-02-29T04:24:59.394Z,81.45
2024-02-29T04:25:31.334Z,81.59
2024-02-29T04:26:03.890Z,81.83
2024-02-29T04:26:35.804Z,80.91
2024-02-29T04:27:08.132Z,81.77
2024-02-29T04:27:40.124Z,81.96
2024-02-29T04:28:12.987Z,81.07
2024-02-29T04:28:44.962Z,81.42
2024-02-29T04:29:16.873Z,81.97
2024-02-29T04:29:48.781Z,81.35
2024-02-29T04:30:20.738Z,81.54
2024-02-29T04:30:52.678Z,82.03
2024-02-29T04:31:24.701Z,82.22
2024-02-29T04:31:56.629Z,81.56
2024-02-29T04:32:28.553Z,81.58
2024-02-29T04:33:01.694Z,81.38
2024-02-29T04:33:33.980Z,82.16
2024-02-29T04:34:06.212Z,81.75
2024-02-29T04:34:38.319Z,82.03
2024-02-29T04:35:12.815Z,81.68
2024-02-29T04:35:44.815Z,82.50
2024-02-29T04:36:17.359Z,81.90
2024-02-29T04:36:49.309Z,82.07
2024-02-29T04:37:21.328Z,82.40
2024-02-29T04:37:53.247Z,81.58
2024-02-29T04:38:25.904Z,82.00
2024-02-29T04:38:57.824Z,82.53
2024-02-29T04:39:29.762Z,82.09
2024-02-29T04:40:01.842Z,82.39
2024-02-29T04:40:34.058Z,82.59
2024-02-29T04:41:05.992Z,81.80
2024-02-29T04:41:37.906Z,82.50
2024-02-29T04:42:09.845Z,82.65
2024-02-29T04:42:41.879Z,82.29
2024-02-29T04:43:13.990Z,81.80
2024-02-29T04:43:45.957Z,81.85
2024-02-29T04:44:17.984Z,81.84
2024-02-29T04:44:49.908Z,82.04
2024-02-29T04:45:24.591Z,82.39
2024-02-29T04:45:56.948Z,81.40
2024-02-29T04:46:28.892Z,82.21
2024-02-29T04:47:00.859Z,82.18
2024-02-29T04:47:32.826Z,81.61
2024-02-29T04:48:05.929Z,81.48
2024-02-29T04:48:37.943Z,81.39
2024-02-29T04:49:10.317Z,82.06
2024-02-29T04:49:42.274Z,81.38
2024-02-29T04:50:14.260Z,81.67
2024-02-29T04:50:46.290Z,81.74
2024-02-29T04:51:18.261Z,81.82
2024-02-29T04:51:50.423Z,81.90
2024-02-29T04:52:22.904Z,81.78
2024-02-29T04:52:56.364Z,81.67
2024-02-29T04:53:29.161Z,81.48
2024-02-29T04:54:03.723Z,81.51
2024-02-29T04:54:39.881Z,81.02
2024-02-29T04:55:12.144Z,80.97
2024-02-29T04:55:46.497Z,81.37
2024-02-29T04:56:18.480Z,81.08
2024-02-29T04:56:50.458Z,80.87
2024-02-29T04:57:22.362Z,80.94
2024-02-29T04:57:54.345Z,81.80
2024-02-29T04:58:26.452Z,80.95
2024-02-29T04:58:58.539Z,81.16
2024-02-29T04:59:33.943Z,81.77
2024-02-29T05:00:11.860Z,81.51
2024-02-29T05:00:49.139Z,81.59
2024-02-29T05:01:22.571Z,81.48
2024-02-29T05:01:55.063Z,80.88
2024-02-29T05:02:28.031Z,81.25
2024-02-29T05:03:00.139Z,81.72
2024-02-29T05:03:32.107Z,81.34
2024-02-29T05:04:04.834Z,82.09
2024-02-29T05:04:37.286Z,81.69
2024-02-29T05:05:11.937Z,81.95
2024-02-29T05:05:43.873Z,81.02
2024-02-29T05:06:18.199Z,81.17
2024-02-29T05:06:51.086Z,81.78
2024-02-29T05:07:23.362Z,81.76
2024-02-29T05:07:55.996Z,81.36
2024-02-29T05:08:29.482Z,81.24
2024-02-29T05:09:01.495Z,81.87
2024-02-29T05:09:33.915Z,81.75
2024-02-29T05:10:09.125Z,81.94
2024-02-29T05:10:41.235Z,81.93
2024-02-29T05:11:14.173Z,81.30
2024-02-29T05:11:46.651Z,81.38
2024-02-29T05:12:19.282Z,82.05
2024-02-29T05:12:56.987Z,81.95
2024-02-29T05:13:28.957Z,81.68
2024-02-29T05:14:03.214Z,82.07
2024-02-29T05:14:35.284Z,82.11
2024-02-29T05:15:07.865Z,82.06
2024-02-29T05:15:40.995Z,82.16
2024-02-29T05:16:16.432Z,81.41
2024-02-29T05:16:49.875Z,81.95
2024-02-29T05:17:22.975Z,81.11
2024-02-29T05:17:54.929Z,81.98
2024-02-29T05:18:29.010Z,81.65
2024-02-29T05:19:01.045Z,81.09
2024-02-29T05:19:33.357Z,82.05
2024-02-29T05:20:06.899Z,81.84
2024-02-29T05:20:39.956Z,81.27
2024-02-29T05:21:14.624Z,81.46
2024-02-29T05:21:48.373Z,81.67
2024-02-29T05:22:21.980Z,81.62
2024-02-29T05:22:55.202Z,81.00
2024-02-29T05:23:29.841Z,81.69
2024-02-29T05:24:02.957Z,81.26
2024-02-29T05:24:34.938Z,81.33
2024-02-29T05:25:09.391Z,81.46
2024-02-29T05:25:41.325Z,81.86
2024-02-29T05:26:13.454Z,81.10
2024-02-29T05:26:46.525Z,81.45
2024-02-29T05:27:20.702Z,82.33
2024-02-29T05:27:54.688Z,82.40
2024-02-29T05:28:27.539Z,81.76
2024-02-29T05:28:59.582Z,81.79
2024-02-29T05:29:32.856Z,82.19
2024-02-29T05:30:05.653Z,81.61
2024-02-29T05:30:37.578Z,81.74
2024-02-29T05:31:10.245Z,82.33
2024-02-29T05:31:42.277Z,81.97
2024-02-29T05:32:17.368Z,81.13
2024-02-29T05:32:50.485Z,81.42
2024-02-29T05:33:22.449Z,81.35
2024-02-29T05:33:54.378Z,82.13
2024-02-29T05:34:26.385Z,81.37
2024-02-29T05:34:58.402Z,81.61
2024-02-29T05:35:30.445Z,81.72
2024-02-29T05:36:02.714Z,81.99
2024-02-29T05:36:34.641Z,82.02
2024-02-29T05:37:06.650Z,82.06
2024-02-29T05:37:38.625Z,82.25
2024-02-29T05:38:10.588Z,81.57
2024-02-29T05:38:42.602Z,81.64
2024-02-29T05:39:14.528Z,82.53
2024-02-29T05:39:46.493Z,81.79
2024-02-29T05:40:18.641Z,82.46
2024-02-29T05:40:50.639Z,82.10
2024-02-29T05:41:22.593Z,82.44
2024-02-29T05:41:57.333Z,81.71
2024-02-29T05:42:29.662Z,82.54
2024-02-29T05:43:04.854Z,82.20
2024-02-29T05:43:37.384Z,82.07
2024-02-29T05:44:09.987Z,81.54
2024-02-29T05:44:41.956Z,82.32
2024-02-29T05:45:13.984Z,82.25
2024-02-29T05:45:45.960Z,81.67
2024-02-29T05:46:18.014Z,81.45
2024-02-29T05:46:50.011Z,81.41
2024-02-29T05:47:22.124Z,81.74
2024-02-29T05:47:54.125Z,81.81
2024-02-29T05:48:26.183Z,81.47
2024-02-29T05:48:58.797Z,81.98
2024-02-29T05:49:30.733Z,81.44
2024-02-29T05:50:02.658Z,82.12
2024-02-29T05:50:34.778Z,81.22
2024-02-29T05:51:08.730Z,82.36
2024-02-29T05:51:40.733Z,82.02
2024-02-29T05:52:12.757Z,81.59
2024-02-29T05:52:44.701Z,81.55
2024-02-29T05:53:16.632Z,82.32
2024-02-29T05:53:48.681Z,81.99
2024-02-29T05:54:20.691Z,82.38
2024-02-29T05:54:52.662Z,81.97
2024-02-29T05:55:24.641Z,81.90
2024-02-29T05:55:56.650Z,82.17
2024-02-29T05:56:28.556Z,81.78
2024-02-29T05:57:02.751Z,81.32
2024-02-29T05:57:36.461Z,81.08
2024-02-29T05:58:08.436Z,81.40
2024-02-29T05:58:40.544Z,81.52
2024-02-29T05:59:13.895Z,81.78
2024-02-29T05:59:45.888Z,81.64
2024-02-29T06:00:20.980Z,81.17
2024-02-29T06:00:53.457Z,81.92
2024-02-29T06:01:25.573Z,81.77
2024-02-29T06:01:57.631Z,80.89
2024-02-29T06:02:29.580Z,81.51
2024-02-29T06:03:01.670Z,81.73
2024-02-29T06:03:33.647Z,81.18
2024-02-29T06:04:05.963Z,81.11
2024-02-29T06:04:37.941Z,81.04
2024-02-29T06:05:10.161Z,81.37
2024-02-29T06:05:42.136Z,81.42
2024-02-29T06:06:16.653Z,80.52
2024-02-29T06:06:49.123Z,81.08
2024-02-29T06:07:21.070Z,81.50
2024-02-29T06:07:53.050Z,81.04
2024-02-29T06:08:24.985Z,81.00
2024-02-29T06:08:56.907Z,81.39
2024-02-29T06:09:28.897Z,80.58
2024-02-29T06:10:00.874Z,81.13
2024-02-29T06:10:32.909Z,80.67
2024-02-29T06:11:04.978Z,80.72
2024-02-29T06:11:36.921Z,81.07
2024-02-29T06:12:09.478Z,80.92
2024-02-29T06:12:41.409Z,80.80
2024-02-29T06:13:13.562Z,81.29
2024-02-29T06:13:45.902Z,80.70
2024-02-29T06:14:18.456Z,81.27
2024-02-29T06:14:50.385Z,81.37
2024-02-29T06:15:22.403Z,81.03
2024-02-29T06:15:54.384Z,81.33
2024-02-29T06:16:27.616Z,80.58
2024-02-29T06:16:59.703Z,81.43
2024-02-29T06:17:31.766Z,80.77
2024-02-29T06:18:03.730Z,80.52
2024-02-29T06:18:37.525Z,81.11
2024-02-29T06:19:09.499Z,80.71
2024-02-29T06:19:41.406Z,80.94
2024-02-29T06:20:13.826Z,80.61
2024-02-29T06:20:45.818Z,80.86
2024-02-29T06:21:17.742Z,80.49
2024-02-29T06:21:49.726Z,81.03
2024-02-29T06:22:24.075Z,80.91
2024-02-29T06:22:57.009Z,80.93
2024-02-29T06:23:29.161Z,80.66
2024-02-29T06:24:01.152Z,81.11
2024-02-29T06:24:33.079Z,81.30
2024-02-29T06:25:06.731Z,81.37
2024-02-29T06:25:38.958Z,81.31
2024-02-29T06:26:10.965Z,80.48
2024-02-29T06:26:42.896Z,80.78
2024-02-29T06:27:14.826Z,81.34
2024-02-29T06:27:46.820Z,80.68
2024-02-29T06:28:21.980Z,80.89
2024-02-29T06:28:56.025Z,81.51
2024-02-29T06:29:27.957Z,80.99
2024-02-29T06:29:59.910Z,81.32
2024-02-29T06:30:34.770Z,81.44
2024-02-29T06:31:07.343Z,81.42
2024-02-29T06:31:39.284Z,81.64
2024-02-29T06:32:11.181Z,81.17
2024-02-29T06:32:45.248Z,81.40
2024-02-29T06:33:17.343Z,81.38
2024-02-29T06:33:49.356Z,80.96
2024-02-29T06:34:21.632Z,81.60
2024-02-29T06:34:53.640Z,81.11
2024-02-29T06:35:25.780Z,81.25
2024-02-29T06:35:57.773Z,81.25
2024-02-29T06:36:29.769Z,80.94
2024-02-29T06:37:01.908Z,81.10
2024-02-29T06:37:33.872Z,81.16
2024-02-29T06:38:05.933Z,81.08
2024-02-29T06:38:37.879Z,81.50
2024-02-29T06:39:09.956Z,80.55
2024-02-29T06:39:41.896Z,81.07
2024-02-29T06:40:14.443Z,80.75
2024-02-29T06:40:47.539Z,80.63
2024-02-29T06:41:19.736Z,80.51
2024-02-29T06:41:51.662Z,80.73
2024-02-29T06:42:23.635Z,80.86
2024-02-29T06:42:55.621Z,80.56
2024-02-29T06:43:29.184Z,80.54
2024-02-29T06:44:04.256Z,80.20
2024-02-29T06:44:36.159Z,80.54
2024-02-29T06:45:08.541Z,81.01
2024-02-29T06:45:48.211Z,80.45
2024-02-29T06:46:20.248Z,80.20
2024-02-29T06:46:52.319Z,80.59
2024-02-29T06:47:24.302Z,79.94
2024-02-29T06:47:56.238Z,79.70
2024-02-29T06:48:28.285Z,80.33
2024-02-29T06:49:02.171Z,80.26
2024-02-29T06:49:34.128Z,79.97
2024-02-29T06:50:06.936Z,79.88
2024-02-29T06:50:38.880Z,79.85
2024-02-29T06:51:10.936Z,80.11
2024-02-29T06:51:42.895Z,80.08
2024-02-29T06:52:14.920Z,79.63
2024-02-29T06:52:47.929Z,80.15
2024-02-29T06:53:20.157Z,80.35
2024-02-29T06:53:52.113Z,80.12
2024-02-29T06:54:24.082Z,79.91
2024-02-29T06:54:56.061Z,80.22
2024-02-29T06:55:28.859Z,80.43
2024-02-29T06:56:00.856Z,79.90
2024-02-29T06:56:32.775Z,79.88
2024-02-29T06:57:04.802Z,79.70
2024-02-29T06:57:37.731Z,79.68
2024-02-29T06:58:09.846Z,79.49
2024-02-29T06:58:43.809Z,79.78
2024-02-29T06:59:15.755Z,79.30
2024-02-29T06:59:49.920Z,79.48